Garden City, Virginia
Current Conditions -  °F | °C
As of 4:54 AM on Thursday 23 Oct 2014 (Local Time) from KROA Reporting Station
Scattered Clouds Scattered Clouds  
Wind Chill: 43°   Ceiling: Unl
Heat Index: 49°   Visibility: 10mi
Dew Point: 38°   Wind: 16mph
Humidity: 66%   Direction: 310°NW
Pressure: 30.08"   Gusts: NA
Location:  37.224°N, 79.9199°W
Report Text: KROA 230854Z 31014KT 10SM FEW032 SCT250 09/03 A3008 RMK AO2 SLP182 T00940033 58000
Loading
Personal Weather Stations






























Interactive Weather Map
Tropical Storm Tracking
New forecast layout! Learn more

10-Day Weather Forecast

Advertisements
Track Severe Weather on mobile